sensor_id;sensor_type;location;lat;lon;timestamp;pressure;altitude;pressure_sealevel;temperature;humidity
68476;BME280;55464;48.266;14.188;2023-05-22T00:00:09;97542.25;;;18.28;61.05
68476;BME280;55464;48.266;14.188;2023-05-22T00:02:37;97541.09;;;18.22;60.86
68476;BME280;55464;48.266;14.188;2023-05-22T00:05:13;97548.25;;;18.23;61.32
68476;BME280;55464;48.266;14.188;2023-05-22T00:07:39;97537.91;;;18.23;61.31
68476;BME280;55464;48.266;14.188;2023-05-22T00:10:07;97541.47;;;18.20;61.30
68476;BME280;55464;48.266;14.188;2023-05-22T00:12:33;97547.84;;;18.24;61.53
68476;BME280;55464;48.266;14.188;2023-05-22T00:14:58;97539.88;;;18.23;61.46
68476;BME280;55464;48.266;14.188;2023-05-22T00:17:24;97534.69;;;18.21;61.79
68476;BME280;55464;48.266;14.188;2023-05-22T00:19:51;97538.31;;;18.14;61.90
68476;BME280;55464;48.266;14.188;2023-05-22T00:22:18;97529.94;;;18.11;62.04
68476;BME280;55464;48.266;14.188;2023-05-22T00:24:43;97529.53;;;18.09;62.42
68476;BME280;55464;48.266;14.188;2023-05-22T00:27:09;97531.94;;;18.10;62.19
68476;BME280;55464;48.266;14.188;2023-05-22T00:29:34;97536.31;;;18.08;62.30
68476;BME280;55464;48.266;14.188;2023-05-22T00:32:00;97522.78;;;18.03;62.42
68476;BME280;55464;48.266;14.188;2023-05-22T00:34:25;97523.56;;;18.03;62.45
68476;BME280;55464;48.266;14.188;2023-05-22T00:36:51;97531.16;;;18.03;62.74
68476;BME280;55464;48.266;14.188;2023-05-22T00:39:16;97529.94;;;18.00;62.54
68476;BME280;55464;48.266;14.188;2023-05-22T00:41:42;97537.53;;;18.00;62.77
68476;BME280;55464;48.266;14.188;2023-05-22T00:44:07;97520.41;;;17.90;62.55
68476;BME280;55464;48.266;14.188;2023-05-22T00:46:34;97535.13;;;17.98;62.61
68476;BME280;55464;48.266;14.188;2023-05-22T00:49:00;97523.59;;;17.96;62.56
68476;BME280;55464;48.266;14.188;2023-05-22T00:51:26;97517.63;;;17.90;62.59
68476;BME280;55464;48.266;14.188;2023-05-22T00:53:52;97519.19;;;17.91;62.89
68476;BME280;55464;48.266;14.188;2023-05-22T00:56:19;97517.22;;;17.95;62.64
68476;BME280;55464;48.266;14.188;2023-05-22T00:58:45;97515.22;;;17.96;62.78
68476;BME280;55464;48.266;14.188;2023-05-22T01:01:11;97512.03;;;17.94;62.71
68476;BME280;55464;48.266;14.188;2023-05-22T01:03:41;97510.03;;;17.94;63.09
68476;BME280;55464;48.266;14.188;2023-05-22T01:06:10;97504.06;;;17.85;63.21
68476;BME280;55464;48.266;14.188;2023-05-22T01:08:35;97512.84;;;17.87;63.20
68476;BME280;55464;48.266;14.188;2023-05-22T01:11:09;97500.47;;;17.81;63.05
68476;BME280;55464;48.266;14.188;2023-05-22T01:16:44;97514.00;;;17.83;63.29
68476;BME280;55464;48.266;14.188;2023-05-22T01:24:41;97506.03;;;17.77;63.46
68476;BME280;55464;48.266;14.188;2023-05-22T01:27:42;97500.88;;;17.76;63.90
68476;BME280;55464;48.266;14.188;2023-05-22T01:33:11;97503.25;;;17.67;63.85
68476;BME280;55464;48.266;14.188;2023-05-22T01:35:39;97504.47;;;17.66;63.97
68476;BME280;55464;48.266;14.188;2023-05-22T01:38:06;97504.47;;;17.62;63.88
68476;BME280;55464;48.266;14.188;2023-05-22T01:40:32;97504.88;;;17.61;64.23
68476;BME280;55464;48.266;14.188;2023-05-22T01:42:58;97501.25;;;17.56;64.21
68476;BME280;55464;48.266;14.188;2023-05-22T01:45:24;97502.09;;;17.53;64.31
68476;BME280;55464;48.266;14.188;2023-05-22T01:47:50;97486.56;;;17.45;64.48
68476;BME280;55464;48.266;14.188;2023-05-22T01:50:15;97487.72;;;17.48;64.55
68476;BME280;55464;48.266;14.188;2023-05-22T01:55:32;97498.09;;;17.47;64.47
68476;BME280;55464;48.266;14.188;2023-05-22T02:00:32;97506.06;;;17.45;64.55
68476;BME280;55464;48.266;14.188;2023-05-22T02:03:06;97503.66;;;17.44;65.04
68476;BME280;55464;48.266;14.188;2023-05-22T02:05:37;97492.13;;;17.38;64.81
68476;BME280;55464;48.266;14.188;2023-05-22T02:08:04;97500.88;;;17.36;64.89
68476;BME280;55464;48.266;14.188;2023-05-22T02:10:30;97502.88;;;17.32;64.87
68476;BME280;55464;48.266;14.188;2023-05-22T02:12:57;97492.91;;;17.31;65.04
68476;BME280;55464;48.266;14.188;2023-05-22T02:15:22;97494.50;;;17.32;64.93
68476;BME280;55464;48.266;14.188;2023-05-22T02:17:48;97491.31;;;17.27;65.01
68476;BME280;55464;48.266;14.188;2023-05-22T02:20:15;97490.91;;;17.32;65.28
68476;BME280;55464;48.266;14.188;2023-05-22T02:22:41;97490.13;;;17.28;65.04
68476;BME280;55464;48.266;14.188;2023-05-22T02:25:09;97496.88;;;17.27;65.17
68476;BME280;55464;48.266;14.188;2023-05-22T02:27:39;97494.09;;;17.23;65.14
68476;BME280;55464;48.266;14.188;2023-05-22T02:30:05;97499.25;;;17.28;65.32
68476;BME280;55464;48.266;14.188;2023-05-22T02:32:31;97495.28;;;17.29;65.32
68476;BME280;55464;48.266;14.188;2023-05-22T02:34:57;97493.69;;;17.25;65.13
68476;BME280;55464;48.266;14.188;2023-05-22T02:37:23;97483.38;;;17.22;65.40
68476;BME280;55464;48.266;14.188;2023-05-22T02:39:48;97482.94;;;17.19;65.36
68476;BME280;55464;48.266;14.188;2023-05-22T02:42:13;97491.28;;;17.23;65.38
68476;BME280;55464;48.266;14.188;2023-05-22T02:44:39;97487.31;;;17.20;65.26
68476;BME280;55464;48.266;14.188;2023-05-22T02:47:04;97487.34;;;17.24;65.34
68476;BME280;55464;48.266;14.188;2023-05-22T02:49:30;97491.28;;;17.23;65.58
68476;BME280;55464;48.266;14.188;2023-05-22T02:51:55;97483.75;;;17.13;65.77
68476;BME280;55464;48.266;14.188;2023-05-22T02:54:21;97486.09;;;17.11;65.95
68476;BME280;55464;48.266;14.188;2023-05-22T02:56:46;97485.72;;;17.16;65.99
68476;BME280;55464;48.266;14.188;2023-05-22T02:59:11;97476.19;;;17.10;65.93
68476;BME280;55464;48.266;14.188;2023-05-22T03:01:37;97472.19;;;17.14;66.05
68476;BME280;55464;48.266;14.188;2023-05-22T03:04:04;97466.63;;;17.14;65.98
68476;BME280;55464;48.266;14.188;2023-05-22T03:06:31;97473.78;;;17.12;66.28
68476;BME280;55464;48.266;14.188;2023-05-22T03:08:57;97476.56;;;17.12;65.97
68476;BME280;55464;48.266;14.188;2023-05-22T03:11:22;97460.25;;;17.07;66.03
68476;BME280;55464;48.266;14.188;2023-05-22T03:13:47;97469.41;;;17.07;66.41
68476;BME280;55464;48.266;14.188;2023-05-22T03:16:13;97474.97;;;17.07;66.30
68476;BME280;55464;48.266;14.188;2023-05-22T03:18:38;97466.63;;;17.07;66.25
68476;BME280;55464;48.266;14.188;2023-05-22T03:21:04;97480.16;;;17.09;66.32
68476;BME280;55464;48.266;14.188;2023-05-22T03:23:30;97469.00;;;17.01;66.37
68476;BME280;55464;48.266;14.188;2023-05-22T03:25:55;97477.75;;;17.07;66.51
68476;BME280;55464;48.266;14.188;2023-05-22T03:28:21;97482.13;;;17.08;66.08
68476;BME280;55464;48.266;14.188;2023-05-22T03:30:46;97486.09;;;17.07;66.58
68476;BME280;55464;48.266;14.188;2023-05-22T03:33:12;97474.56;;;17.01;66.88
68476;BME280;55464;48.266;14.188;2023-05-22T03:35:37;97480.94;;;17.06;66.77
68476;BME280;55464;48.266;14.188;2023-05-22T03:38:02;97476.56;;;17.01;66.79
68476;BME280;55464;48.266;14.188;2023-05-22T03:40:28;97480.13;;;17.05;66.77
68476;BME280;55464;48.266;14.188;2023-05-22T03:42:53;97481.75;;;17.06;66.95
68476;BME280;55464;48.266;14.188;2023-05-22T03:45:18;97479.75;;;17.03;66.90
68476;BME280;55464;48.266;14.188;2023-05-22T03:47:44;97465.44;;;17.01;67.00
68476;BME280;55464;48.266;14.188;2023-05-22T03:50:09;97478.13;;;17.06;67.00
68476;BME280;55464;48.266;14.188;2023-05-22T03:52:35;97474.56;;;17.01;67.42
68476;BME280;55464;48.266;14.188;2023-05-22T03:55:00;97479.34;;;16.97;67.17
68476;BME280;55464;48.266;14.188;2023-05-22T03:57:26;97472.19;;;17.00;67.12
68476;BME280;55464;48.266;14.188;2023-05-22T03:59:51;97480.91;;;17.02;67.49
68476;BME280;55464;48.266;14.188;2023-05-22T04:02:17;97478.13;;;16.98;67.71
68476;BME280;55464;48.266;14.188;2023-05-22T04:04:43;97477.72;;;16.93;67.61
68476;BME280;55464;48.266;14.188;2023-05-22T04:07:11;97476.16;;;16.99;67.62
68476;BME280;55464;48.266;14.188;2023-05-22T04:09:37;97477.75;;;17.00;67.64
68476;BME280;55464;48.266;14.188;2023-05-22T04:12:03;97474.56;;;17.01;67.65
68476;BME280;55464;48.266;14.188;2023-05-22T04:14:29;97470.22;;;17.00;67.69
68476;BME280;55464;48.266;14.188;2023-05-22T04:16:54;97476.56;;;17.01;67.79
68476;BME280;55464;48.266;14.188;2023-05-22T04:19:20;97473.38;;;16.99;67.98
68476;BME280;55464;48.266;14.188;2023-05-22T04:21:47;97471.78;;;17.01;68.02
68476;BME280;55464;48.266;14.188;2023-05-22T04:24:13;97478.13;;;17.06;68.16
68476;BME280;55464;48.266;14.188;2023-05-22T04:26:38;97477.34;;;17.01;68.20
68476;BME280;55464;48.266;14.188;2023-05-22T04:29:04;97488.88;;;17.04;68.25
68476;BME280;55464;48.266;14.188;2023-05-22T04:31:35;97486.50;;;17.02;68.23
68476;BME280;55464;48.266;14.188;2023-05-22T04:34:01;97489.31;;;17.09;68.11
68476;BME280;55464;48.266;14.188;2023-05-22T04:36:26;97489.72;;;17.11;68.16
68476;BME280;55464;48.266;14.188;2023-05-22T04:38:53;97498.06;;;17.15;67.84
68476;BME280;55464;48.266;14.188;2023-05-22T04:41:19;97499.66;;;17.16;68.18
68476;BME280;55464;48.266;14.188;2023-05-22T04:43:47;97492.09;;;17.13;68.28
68476;BME280;55464;48.266;14.188;2023-05-22T04:46:13;97492.91;;;17.13;68.33
68476;BME280;55464;48.266;14.188;2023-05-22T04:48:39;97483.34;;;17.18;68.19
68476;BME280;55464;48.266;14.188;2023-05-22T04:51:05;97492.50;;;17.22;68.13
68476;BME280;55464;48.266;14.188;2023-05-22T04:53:30;97492.50;;;17.26;68.10
68476;BME280;55464;48.266;14.188;2023-05-22T04:55:58;97479.75;;;17.17;68.24
68476;BME280;55464;48.266;14.188;2023-05-22T04:58:23;97481.38;;;17.18;68.17
68476;BME280;55464;48.266;14.188;2023-05-22T05:00:54;97492.13;;;17.27;68.66
68476;BME280;55464;48.266;14.188;2023-05-22T05:03:22;97486.53;;;17.24;68.90
68476;BME280;55464;48.266;14.188;2023-05-22T05:05:50;97484.94;;;17.23;68.85
68476;BME280;55464;48.266;14.188;2023-05-22T05:08:15;97495.69;;;17.31;68.65
68476;BME280;55464;48.266;14.188;2023-05-22T05:10:40;97493.31;;;17.33;68.40
68476;BME280;55464;48.266;14.188;2023-05-22T05:13:06;97487.34;;;17.31;68.61
68476;BME280;55464;48.266;14.188;2023-05-22T05:15:31;97499.69;;;17.34;68.55
68476;BME280;55464;48.266;14.188;2023-05-22T05:17:57;97500.09;;;17.36;68.43
68476;BME280;55464;48.266;14.188;2023-05-22T05:20:22;97492.13;;;17.27;68.51
68476;BME280;55464;48.266;14.188;2023-05-22T05:22:48;97502.88;;;17.36;68.75
68476;BME280;55464;48.266;14.188;2023-05-22T05:25:14;97496.91;;;17.34;68.54
68476;BME280;55464;48.266;14.188;2023-05-22T05:27:39;97496.47;;;17.35;68.66
68476;BME280;55464;48.266;14.188;2023-05-22T05:30:05;97494.50;;;17.32;68.66
68476;BME280;55464;48.266;14.188;2023-05-22T05:32:31;97496.91;;;17.41;68.93
68476;BME280;55464;48.266;14.188;2023-05-22T05:34:56;97499.69;;;17.45;69.04
68476;BME280;55464;48.266;14.188;2023-05-22T05:37:22;97494.13;;;17.45;69.60
68476;BME280;55464;48.266;14.188;2023-05-22T05:39:47;97497.31;;;17.47;69.20
68476;BME280;55464;48.266;14.188;2023-05-22T05:42:13;97493.31;;;17.41;68.76
68476;BME280;55464;48.266;14.188;2023-05-22T05:44:38;97497.69;;;17.49;68.89
68476;BME280;55464;48.266;14.188;2023-05-22T05:47:04;97502.47;;;17.48;68.70
68476;BME280;55464;48.266;14.188;2023-05-22T05:49:30;97500.09;;;17.54;68.67
68476;BME280;55464;48.266;14.188;2023-05-22T05:51:55;97501.25;;;17.56;68.46
68476;BME280;55464;48.266;14.188;2023-05-22T05:54:21;97503.66;;;17.58;68.68
68476;BME280;55464;48.266;14.188;2023-05-22T05:56:46;97497.69;;;17.60;69.27
68476;BME280;55464;48.266;14.188;2023-05-22T05:59:12;97498.09;;;17.54;68.87
68476;BME280;55464;48.266;14.188;2023-05-22T06:01:37;97500.47;;;17.63;68.71
68476;BME280;55464;48.266;14.188;2023-05-22T06:04:03;97504.88;;;17.68;68.33
68476;BME280;55464;48.266;14.188;2023-05-22T06:06:30;97503.25;;;17.67;68.41
68476;BME280;55464;48.266;14.188;2023-05-22T06:09:04;97499.28;;;17.71;68.72
68476;BME280;55464;48.266;14.188;2023-05-22T06:11:33;97502.47;;;17.73;68.61
68476;BME280;55464;48.266;14.188;2023-05-22T06:14:00;97484.94;;;17.73;68.71
68476;BME280;55464;48.266;14.188;2023-05-22T06:16:25;97470.22;;;17.65;68.61
68476;BME280;55464;48.266;14.188;2023-05-22T06:18:51;97486.94;;;17.80;68.63
68476;BME280;55464;48.266;14.188;2023-05-22T06:21:19;97484.53;;;17.85;68.47
68476;BME280;55464;48.266;14.188;2023-05-22T06:23:46;97489.34;;;17.88;68.63
68476;BME280;55464;48.266;14.188;2023-05-22T06:26:12;97491.72;;;17.97;68.84
68476;BME280;55464;48.266;14.188;2023-05-22T06:28:38;97479.34;;;18.02;68.47
68476;BME280;55464;48.266;14.188;2023-05-22T06:31:03;97468.59;;;18.00;68.74
68476;BME280;55464;48.266;14.188;2023-05-22T06:33:29;97480.16;;;18.06;68.50
68476;BME280;55464;48.266;14.188;2023-05-22T06:35:55;97479.72;;;18.07;68.65
68476;BME280;55464;48.266;14.188;2023-05-22T06:38:20;97492.47;;;18.16;68.59
68476;BME280;55464;48.266;14.188;2023-05-22T06:40:46;97472.56;;;18.13;68.71
68476;BME280;55464;48.266;14.188;2023-05-22T06:43:11;97483.69;;;18.24;68.81
68476;BME280;55464;48.266;14.188;2023-05-22T06:45:36;97481.69;;;18.21;69.13
68476;BME280;55464;48.266;14.188;2023-05-22T06:48:02;97479.28;;;18.30;69.46
68476;BME280;55464;48.266;14.188;2023-05-22T06:50:29;97494.41;;;18.37;67.92
68476;BME280;55464;48.266;14.188;2023-05-22T06:52:54;97488.81;;;18.40;68.41
68476;BME280;55464;48.266;14.188;2023-05-22T06:55:19;97492.41;;;18.44;68.15
68476;BME280;55464;48.266;14.188;2023-05-22T06:57:45;97490.00;;;18.46;67.61
68476;BME280;55464;48.266;14.188;2023-05-22T07:00:12;97485.97;;;18.55;68.00
68476;BME280;55464;48.266;14.188;2023-05-22T07:02:37;97487.53;;;18.59;68.43
68476;BME280;55464;48.266;14.188;2023-05-22T07:05:04;97479.56;;;18.58;67.94
68476;BME280;55464;48.266;14.188;2023-05-22T07:07:29;97477.97;;;18.64;68.53
68476;BME280;55464;48.266;14.188;2023-05-22T07:09:55;97487.50;;;18.70;67.21
68476;BME280;55464;48.266;14.188;2023-05-22T07:12:20;97479.13;;;18.70;67.42
68476;BME280;55464;48.266;14.188;2023-05-22T07:14:50;97480.69;;;18.75;67.61
68476;BME280;55464;48.266;14.188;2023-05-22T07:17:16;97473.50;;;18.74;67.11
68476;BME280;55464;48.266;14.188;2023-05-22T07:19:41;97477.88;;;18.78;67.43
68476;BME280;55464;48.266;14.188;2023-05-22T07:22:06;97475.50;;;18.77;67.52
68476;BME280;55464;48.266;14.188;2023-05-22T07:24:32;97466.31;;;18.80;68.44
68476;BME280;55464;48.266;14.188;2023-05-22T07:26:57;97468.69;;;18.88;67.96
68476;BME280;55464;48.266;14.188;2023-05-22T07:29:22;97476.66;;;18.90;67.38
68476;BME280;55464;48.266;14.188;2023-05-22T07:31:48;97473.00;;;19.00;68.33
68476;BME280;55464;48.266;14.188;2023-05-22T07:34:13;97464.22;;;18.98;67.49
68476;BME280;55464;48.266;14.188;2023-05-22T07:36:39;97474.53;;;19.08;67.56
68476;BME280;55464;48.266;14.188;2023-05-22T07:39:05;97473.34;;;19.10;67.92
68476;BME280;55464;48.266;14.188;2023-05-22T07:41:30;97470.19;;;19.07;68.56
68476;BME280;55464;48.266;14.188;2023-05-22T07:43:56;97470.91;;;19.15;67.95
68476;BME280;55464;48.266;14.188;2023-05-22T07:46:21;97477.25;;;19.23;67.77
68476;BME280;55464;48.266;14.188;2023-05-22T07:48:47;97472.06;;;19.25;67.82
68476;BME280;55464;48.266;14.188;2023-05-22T07:51:12;97475.22;;;19.31;67.49
68476;BME280;55464;48.266;14.188;2023-05-22T07:53:38;97469.19;;;19.36;67.18
68476;BME280;55464;48.266;14.188;2023-05-22T07:56:03;97469.91;;;19.43;67.96
68476;BME280;55464;48.266;14.188;2023-05-22T07:58:29;97462.34;;;19.40;68.17
68476;BME280;55464;48.266;14.188;2023-05-22T08:00:54;97465.50;;;19.46;68.61
68476;BME280;55464;48.266;14.188;2023-05-22T08:03:20;97467.88;;;19.48;66.75
68476;BME280;55464;48.266;14.188;2023-05-22T08:05:45;97467.06;;;19.51;66.17
68476;BME280;55464;48.266;14.188;2023-05-22T08:08:11;97478.13;;;19.61;66.03
68476;BME280;55464;48.266;14.188;2023-05-22T08:10:36;97471.72;;;19.64;65.86
68476;BME280;55464;48.266;14.188;2023-05-22T08:13:02;97478.50;;;19.67;66.30
68476;BME280;55464;48.266;14.188;2023-05-22T08:15:31;97474.50;;;19.68;66.56
68476;BME280;55464;48.266;14.188;2023-05-22T08:17:56;97472.47;;;19.72;66.22
68476;BME280;55464;48.266;14.188;2023-05-22T08:20:22;97475.63;;;19.81;66.99
68476;BME280;55464;48.266;14.188;2023-05-22T08:22:47;97483.16;;;19.88;65.57
68476;BME280;55464;48.266;14.188;2023-05-22T08:25:13;97481.09;;;19.92;66.71
68476;BME280;55464;48.266;14.188;2023-05-22T08:27:38;97486.66;;;19.96;65.49
68476;BME280;55464;48.266;14.188;2023-05-22T08:30:04;97478.69;;;19.94;65.58
68476;BME280;55464;48.266;14.188;2023-05-22T08:32:30;97464.31;;;19.92;65.70
68476;BME280;55464;48.266;14.188;2023-05-22T08:34:55;97461.09;;;19.94;64.53
68476;BME280;55464;48.266;14.188;2023-05-22T08:37:21;97470.97;;;20.06;65.47
68476;BME280;55464;48.266;14.188;2023-05-22T08:39:46;97470.50;;;20.11;66.65
68476;BME280;55464;48.266;14.188;2023-05-22T08:42:12;97463.72;;;20.12;65.65
68476;BME280;55464;48.266;14.188;2023-05-22T08:44:38;97462.81;;;20.22;65.20
68476;BME280;55464;48.266;14.188;2023-05-22T08:47:03;97470.66;;;20.34;65.66
68476;BME280;55464;48.266;14.188;2023-05-22T08:49:29;97467.84;;;20.34;64.29
68476;BME280;55464;48.266;14.188;2023-05-22T08:51:59;97461.84;;;20.36;63.99
68476;BME280;55464;48.266;14.188;2023-05-22T08:54:27;97463.38;;;20.40;63.11
68476;BME280;55464;48.266;14.188;2023-05-22T08:56:53;97456.53;;;20.45;63.71
68476;BME280;55464;48.266;14.188;2023-05-22T08:59:19;97451.34;;;20.44;63.72
68476;BME280;55464;48.266;14.188;2023-05-22T09:01:46;97448.47;;;20.51;64.41
68476;BME280;55464;48.266;14.188;2023-05-22T09:04:12;97450.44;;;20.54;64.56
68476;BME280;55464;48.266;14.188;2023-05-22T09:06:38;97451.91;;;20.66;63.52
68476;BME280;55464;48.266;14.188;2023-05-22T09:09:03;97455.09;;;20.68;61.13
68476;BME280;55464;48.266;14.188;2023-05-22T09:11:29;97454.28;;;20.67;62.39
68476;BME280;55464;48.266;14.188;2023-05-22T09:14:10;97449.06;;;20.69;61.85
68476;BME280;55464;48.266;14.188;2023-05-22T09:16:46;97452.97;;;20.75;63.56
68476;BME280;55464;48.266;14.188;2023-05-22T09:19:13;97449.75;;;20.77;63.58
68476;BME280;55464;48.266;14.188;2023-05-22T09:21:39;97455.25;;;20.84;62.57
68476;BME280;55464;48.266;14.188;2023-05-22T09:24:08;97456.44;;;20.87;61.51
68476;BME280;55464;48.266;14.188;2023-05-22T09:26:35;97453.16;;;20.92;61.96
68476;BME280;55464;48.266;14.188;2023-05-22T09:29:01;97443.16;;;20.91;62.91
68476;BME280;55464;48.266;14.188;2023-05-22T09:31:29;97445.38;;;21.03;64.84
68476;BME280;55464;48.266;14.188;2023-05-22T09:33:56;97446.94;;;21.08;63.35
68476;BME280;55464;48.266;14.188;2023-05-22T09:36:21;97451.28;;;21.09;61.43
68476;BME280;55464;48.266;14.188;2023-05-22T09:38:53;97446.88;;;21.11;61.24
68476;BME280;55464;48.266;14.188;2023-05-22T09:41:20;97452.06;;;21.13;61.16
68476;BME280;55464;48.266;14.188;2023-05-22T09:43:49;97453.19;;;21.15;62.02
68476;BME280;55464;48.266;14.188;2023-05-22T09:46:15;97449.09;;;21.24;62.31
68476;BME280;55464;48.266;14.188;2023-05-22T09:48:41;97427.88;;;21.23;63.03
68476;BME280;55464;48.266;14.188;2023-05-22T09:51:07;97448.53;;;21.32;62.62
68476;BME280;55464;48.266;14.188;2023-05-22T09:53:34;97443.25;;;21.38;62.75
68476;BME280;55464;48.266;14.188;2023-05-22T09:56:04;97426.13;;;21.32;60.94
68476;BME280;55464;48.266;14.188;2023-05-22T09:58:33;97438.00;;;21.40;60.59
68476;BME280;55464;48.266;14.188;2023-05-22T10:01:00;97425.16;;;21.43;61.67
68476;BME280;55464;48.266;14.188;2023-05-22T10:03:26;97431.44;;;21.50;61.26
68476;BME280;55464;48.266;14.188;2023-05-22T10:05:54;97441.41;;;21.55;61.46
68476;BME280;55464;48.266;14.188;2023-05-22T10:08:31;97421.72;;;21.59;58.96
68476;BME280;55464;48.266;14.188;2023-05-22T10:11:01;97434.00;;;21.65;57.02
68476;BME280;55464;48.266;14.188;2023-05-22T10:13:28;97420.47;;;21.60;58.49
68476;BME280;55464;48.266;14.188;2023-05-22T10:15:54;97427.91;;;21.70;61.15
68476;BME280;55464;48.266;14.188;2023-05-22T10:18:22;97436.69;;;21.72;59.04
68476;BME280;55464;48.266;14.188;2023-05-22T10:20:47;97426.34;;;21.69;55.36
68476;BME280;55464;48.266;14.188;2023-05-22T10:23:14;97423.13;;;21.70;56.21
68476;BME280;55464;48.266;14.188;2023-05-22T10:25:43;97416.28;;;21.71;55.58
68476;BME280;55464;48.266;14.188;2023-05-22T10:28:10;97413.75;;;21.77;59.42
68476;BME280;55464;48.266;14.188;2023-05-22T10:30:49;97415.56;;;21.87;57.83
68476;BME280;55464;48.266;14.188;2023-05-22T10:33:20;97423.84;;;21.95;57.95
68476;BME280;55464;48.266;14.188;2023-05-22T10:35:51;97415.25;;;22.05;58.70
68476;BME280;55464;48.266;14.188;2023-05-22T10:41:13;97417.03;;;22.16;58.87
68476;BME280;55464;48.266;14.188;2023-05-22T10:43:41;97418.63;;;22.17;56.99
68476;BME280;55464;48.266;14.188;2023-05-22T10:46:08;97417.47;;;22.14;56.56
68476;BME280;55464;48.266;14.188;2023-05-22T10:48:43;97413.38;;;22.19;56.15
68476;BME280;55464;48.266;14.188;2023-05-22T10:51:13;97410.50;;;22.22;54.30
68476;BME280;55464;48.266;14.188;2023-05-22T10:53:41;97408.13;;;22.21;51.28
68476;BME280;55464;48.266;14.188;2023-05-22T10:56:14;97396.53;;;22.19;53.95
68476;BME280;55464;48.266;14.188;2023-05-22T10:58:43;97406.81;;;22.25;53.63
68476;BME280;55464;48.266;14.188;2023-05-22T11:01:14;97396.81;;;22.24;54.17
68476;BME280;55464;48.266;14.188;2023-05-22T11:03:59;97396.25;;;22.33;54.60
68476;BME280;55464;48.266;14.188;2023-05-22T11:06:40;97396.56;;;22.39;56.54
68476;BME280;55464;48.266;14.188;2023-05-22T11:09:39;97396.50;;;22.42;55.28
68476;BME280;55464;48.266;14.188;2023-05-22T11:12:23;97393.09;;;22.51;53.42
68476;BME280;55464;48.266;14.188;2023-05-22T11:14:54;97390.22;;;22.55;54.42
68476;BME280;55464;48.266;14.188;2023-05-22T11:17:31;97390.41;;;22.64;54.57
68476;BME280;55464;48.266;14.188;2023-05-22T11:24:55;97379.00;;;22.71;51.35
68476;BME280;55464;48.266;14.188;2023-05-22T11:27:20;97366.91;;;22.74;52.64
68476;BME280;55464;48.266;14.188;2023-05-22T11:29:46;97367.25;;;22.76;53.28
68476;BME280;55464;48.266;14.188;2023-05-22T11:32:12;97365.13;;;22.80;53.71
68476;BME280;55464;48.266;14.188;2023-05-22T11:34:47;97372.97;;;22.89;52.74
68476;BME280;55464;48.266;14.188;2023-05-22T11:37:14;97370.16;;;22.89;52.46
68476;BME280;55464;48.266;14.188;2023-05-22T11:39:47;97379.22;;;22.97;51.14
68476;BME280;55464;48.266;14.188;2023-05-22T11:42:13;97355.94;;;22.96;50.74
68476;BME280;55464;48.266;14.188;2023-05-22T11:44:39;97367.47;;;23.02;50.73
68476;BME280;55464;48.266;14.188;2023-05-22T11:47:05;97355.50;;;22.98;51.28
68476;BME280;55464;48.266;14.188;2023-05-22T11:49:31;97358.81;;;23.13;52.00
68476;BME280;55464;48.266;14.188;2023-05-22T11:51:56;97363.00;;;23.21;51.57
68476;BME280;55464;48.266;14.188;2023-05-22T11:54:22;97359.66;;;23.26;49.93
68476;BME280;55464;48.266;14.188;2023-05-22T11:56:47;97348.16;;;23.20;45.87
68476;BME280;55464;48.266;14.188;2023-05-22T11:59:12;97353.25;;;23.26;44.41
68476;BME280;55464;48.266;14.188;2023-05-22T12:01:38;97352.53;;;23.38;50.10
68476;BME280;55464;48.266;14.188;2023-05-22T12:04:03;97350.88;;;23.40;49.65
68476;BME280;55464;48.266;14.188;2023-05-22T12:06:29;97350.31;;;23.46;45.23
68476;BME280;55464;48.266;14.188;2023-05-22T12:08:58;97344.63;;;23.49;43.74
68476;BME280;55464;48.266;14.188;2023-05-22T12:11:25;97342.06;;;23.55;47.26
68476;BME280;55464;48.266;14.188;2023-05-22T12:13:59;97347.50;;;23.62;45.55
68476;BME280;55464;48.266;14.188;2023-05-22T12:16:25;97344.81;;;23.71;48.20
68476;BME280;55464;48.266;14.188;2023-05-22T12:18:51;97331.53;;;23.72;45.26
68476;BME280;55464;48.266;14.188;2023-05-22T12:21:18;97332.69;;;23.74;45.38
68476;BME280;55464;48.266;14.188;2023-05-22T12:23:48;97344.63;;;23.78;47.97
68476;BME280;55464;48.266;14.188;2023-05-22T12:26:14;97340.78;;;23.72;47.42
68476;BME280;55464;48.266;14.188;2023-05-22T12:28:40;97338.84;;;23.69;47.30
68476;BME280;55464;48.266;14.188;2023-05-22T12:31:06;97338.97;;;23.66;47.37
68476;BME280;55464;48.266;14.188;2023-05-22T12:33:31;97339.16;;;23.58;45.92
68476;BME280;55464;48.266;14.188;2023-05-22T12:35:57;97328.88;;;23.52;44.68
68476;BME280;55464;48.266;14.188;2023-05-22T12:38:29;97341.34;;;23.51;44.01
68476;BME280;55464;48.266;14.188;2023-05-22T12:40:54;97343.19;;;23.57;47.65
68476;BME280;55464;48.266;14.188;2023-05-22T12:43:23;97338.97;;;23.66;49.31
68476;BME280;55464;48.266;14.188;2023-05-22T12:45:53;97340.28;;;23.61;47.14
68476;BME280;55464;48.266;14.188;2023-05-22T12:48:18;97332.19;;;23.63;45.52
68476;BME280;55464;48.266;14.188;2023-05-22T12:50:44;97334.31;;;23.59;45.10
68476;BME280;55464;48.266;14.188;2023-05-22T12:53:10;97325.78;;;23.63;47.93
68476;BME280;55464;48.266;14.188;2023-05-22T12:55:37;97336.63;;;23.77;47.26
68476;BME280;55464;48.266;14.188;2023-05-22T12:58:02;97328.38;;;23.70;47.82
68476;BME280;55464;48.266;14.188;2023-05-22T13:00:28;97325.81;;;23.75;44.46
68476;BME280;55464;48.266;14.188;2023-05-22T13:02:54;97310.97;;;23.75;48.83
68476;BME280;55464;48.266;14.188;2023-05-22T13:05:19;97321.25;;;23.82;48.68
68476;BME280;55464;48.266;14.188;2023-05-22T13:07:45;97315.28;;;23.79;46.60
68476;BME280;55464;48.266;14.188;2023-05-22T13:10:11;97323.97;;;23.85;46.49
68476;BME280;55464;48.266;14.188;2023-05-22T13:12:37;97308.84;;;23.79;43.89